Time;durP1;ratioP1;P1;durP2;ratioP2;P2;SDS_P1;SDS_P2;PMS_P1;PMS_P2;Temp;Humidity;BMP_temperature;BMP_pressure;BME280_temperature;BME280_humidity;BME280_pressure;Samples;Min_cycle;Max_cycle;Signal;HPM_P1;HPM_P2
2022/10/18 00:00:54;;;;;;;13.05;5.63;;;;;;;11.93;100.00;99647.09;5076512;28;20086;-70
2022/10/18 00:03:20;;;;;;;8.43;5.55;;;;;;;12.01;100.00;99654.25;5083532;28;20024;-70
2022/10/18 00:05:47;;;;;;;8.57;4.85;;;;;;;11.98;100.00;99650.06;5072420;28;20024;-70
2022/10/18 00:08:12;;;;;;;7.90;5.40;;;;;;;12.07;100.00;99659.75;5073879;28;20024;-70
2022/10/18 00:10:37;;;;;;;12.02;5.90;;;;;;;12.06;100.00;99652.66;5072482;28;20041;-70
2022/10/18 00:13:03;;;;;;;12.63;5.35;;;;;;;12.13;100.00;99663.59;5079639;28;20052;-70
2022/10/18 00:15:28;;;;;;;13.52;5.35;;;;;;;12.06;100.00;99651.81;5078600;28;20025;-70
2022/10/18 00:17:53;;;;;;;11.60;4.60;;;;;;;12.02;100.00;99670.31;5062659;28;20029;-70
2022/10/18 00:20:19;;;;;;;10.27;4.57;;;;;;;11.99;100.00;99654.44;5061159;28;20024;-70
2022/10/18 00:22:44;;;;;;;11.35;4.70;;;;;;;11.90;100.00;99663.75;5065310;28;20588;-70
2022/10/18 00:25:09;;;;;;;9.93;4.32;;;;;;;11.93;100.00;99667.94;5067747;28;20107;-70
2022/10/18 00:27:35;;;;;;;12.00;4.57;;;;;;;11.89;100.00;99670.16;5071446;28;20028;-70
2022/10/18 00:30:01;;;;;;;8.20;4.43;;;;;;;11.93;100.00;99666.06;5061334;28;20031;-70
2022/10/18 00:32:26;;;;;;;8.02;3.97;;;;;;;11.94;100.00;99667.72;5068778;28;20021;-70
2022/10/18 00:34:51;;;;;;;8.95;3.95;;;;;;;11.85;100.00;99661.56;5063079;28;20035;-72
2022/10/18 00:37:17;;;;;;;7.30;4.10;;;;;;;11.84;100.00;99669.88;5065670;28;20029;-70
2022/10/18 00:39:43;;;;;;;11.45;3.63;;;;;;;11.85;100.00;99660.72;5066088;28;20114;-70
2022/10/18 00:42:21;;;;;;;7.63;3.55;;;;;;;11.84;100.00;99664.44;5069632;28;20032;-70
2022/10/18 00:44:49;;;;;;;5.68;3.85;;;;;;;11.88;100.00;99673.09;5073720;28;20031;-70
2022/10/18 00:47:16;;;;;;;12.57;4.10;;;;;;;11.90;100.00;99669.16;5073678;28;20119;-70
2022/10/18 00:49:56;;;;;;;15.38;4.32;;;;;;;11.88;100.00;99662.25;5066398;28;20103;-70
2022/10/18 00:52:28;;;;;;;5.85;4.03;;;;;;;11.95;100.00;99660.47;5060694;28;20021;-70
2022/10/18 00:54:55;;;;;;;7.93;4.28;;;;;;;11.99;100.00;99662.56;5069422;28;20405;-69
2022/10/18 00:57:20;;;;;;;14.80;4.38;;;;;;;12.11;100.00;99660.22;5057241;28;20074;-70
2022/10/18 00:59:46;;;;;;;7.03;4.30;;;;;;;12.03;100.00;99668.47;5066663;28;20025;-70
2022/10/18 01:02:13;;;;;;;12.65;4.43;;;;;;;12.07;100.00;99665.16;5076556;28;20031;-70
2022/10/18 01:04:39;;;;;;;11.23;4.47;;;;;;;12.03;100.00;99653.03;5089482;28;20060;-70
2022/10/18 01:07:30;;;;;;;6.57;4.15;;;;;;;12.14;100.00;99669.84;5084974;28;20040;-70
2022/10/18 01:10:14;;;;;;;7.45;4.10;;;;;;;12.23;100.00;99671.38;5072346;28;20032;-70
2022/10/18 01:13:01;;;;;;;11.48;4.72;;;;;;;12.22;100.00;99669.72;5083191;28;20101;-70
2022/10/18 01:15:30;;;;;;;6.00;3.42;;;;;;;12.31;100.00;99673.13;5088465;28;20052;-69
2022/10/18 01:18:15;;;;;;;5.43;4.00;;;;;;;12.36;100.00;99667.97;5083601;28;20607;-69
2022/10/18 01:21:28;;;;;;;10.68;3.80;;;;;;;12.36;100.00;99660.66;5090541;28;20032;-69
2022/10/18 01:24:05;;;;;;;7.07;4.07;;;;;;;12.61;100.00;99666.53;5040879;28;20037;-70
2022/10/18 01:26:52;;;;;;;7.50;4.18;;;;;;;12.65;100.00;99664.25;5049590;28;20029;-70
2022/10/18 01:29:50;;;;;;;22.98;3.75;;;;;;;12.75;100.00;99659.34;5074617;28;20045;-70
2022/10/18 01:32:19;;;;;;;8.45;3.88;;;;;;;12.69;100.00;99652.81;5077336;28;20021;-70
2022/10/18 01:34:47;;;;;;;9.70;3.70;;;;;;;12.92;100.00;99649.03;5075747;28;20067;-70
2022/10/18 01:37:16;;;;;;;5.10;3.45;;;;;;;12.99;100.00;99638.22;5076220;28;20096;-69
2022/10/18 01:39:45;;;;;;;10.73;3.50;;;;;;;13.03;100.00;99639.50;5080329;28;20091;-70
2022/10/18 01:42:13;;;;;;;9.80;4.00;;;;;;;12.87;100.00;99633.34;5073337;28;20039;-70
2022/10/18 01:44:41;;;;;;;9.60;3.67;;;;;;;12.70;100.00;99631.94;5091534;28;20036;-70
2022/10/18 01:47:10;;;;;;;12.65;4.38;;;;;;;12.53;100.00;99633.28;5078373;28;20051;-70
2022/10/18 01:49:35;;;;;;;9.13;3.30;;;;;;;12.57;100.00;99634.56;5081588;28;20036;-69
2022/10/18 01:52:00;;;;;;;12.70;4.38;;;;;;;12.57;100.00;99637.25;5084960;28;20308;-69
2022/10/18 01:54:35;;;;;;;7.95;3.78;;;;;;;12.58;100.00;99647.94;5081235;28;20112;-70
2022/10/18 01:57:19;;;;;;;8.18;4.55;;;;;;;12.60;100.00;99645.00;5076003;28;20029;-70
2022/10/18 02:00:08;;;;;;;10.63;4.05;;;;;;;12.70;100.00;99648.22;5082898;28;20004;-70
2022/10/18 02:02:34;;;;;;;16.00;3.97;;;;;;;12.76;100.00;99638.44;5076438;28;20057;-70
2022/10/18 02:05:05;;;;;;;6.82;3.97;;;;;;;12.82;100.00;99645.84;5086760;28;20036;-70
2022/10/18 02:08:01;;;;;;;7.70;4.20;;;;;;;12.95;100.00;99643.22;5074805;28;20031;-71
2022/10/18 02:10:33;;;;;;;7.43;4.10;;;;;;;12.94;100.00;99628.78;5085786;28;20060;-70
2022/10/18 02:12:59;;;;;;;10.07;4.18;;;;;;;13.01;100.00;99638.84;5076438;28;20031;-70
2022/10/18 02:15:36;;;;;;;6.65;4.20;;;;;;;13.02;100.00;99637.81;5082559;28;20048;-70
2022/10/18 02:18:09;;;;;;;8.55;3.65;;;;;;;13.09;100.00;99638.69;5081235;28;20033;-70
2022/10/18 02:20:36;;;;;;;6.95;3.72;;;;;;;13.19;100.00;99625.59;5078729;28;20089;-70
2022/10/18 02:23:04;;;;;;;16.27;4.45;;;;;;;13.23;100.00;99626.88;5080314;28;20017;-70
2022/10/18 02:25:32;;;;;;;20.90;4.78;;;;;;;13.23;100.00;99616.03;5084542;28;20079;-71
2022/10/18 02:27:59;;;;;;;9.60;4.00;;;;;;;13.21;100.00;99623.53;5075727;28;20039;-71
2022/10/18 02:30:50;;;;;;;9.27;4.25;;;;;;;13.22;100.00;99624.34;5061456;28;20033;-71
2022/10/18 02:33:24;;;;;;;7.82;3.50;;;;;;;13.27;100.00;99627.34;5059127;28;20100;-71
2022/10/18 02:35:58;;;;;;;8.48;3.83;;;;;;;13.30;100.00;99622.34;5054180;28;20052;-70
2022/10/18 02:38:26;;;;;;;7.80;3.58;;;;;;;13.32;100.00;99620.25;5056759;28;20028;-70
2022/10/18 02:40:51;;;;;;;8.88;3.53;;;;;;;13.27;100.00;99609.16;5062379;28;20028;-71
2022/10/18 02:43:17;;;;;;;7.95;3.28;;;;;;;13.30;100.00;99619.63;5064353;28;20024;-71
2022/10/18 02:45:42;;;;;;;4.95;3.13;;;;;;;13.30;100.00;99614.19;5067438;28;20386;-71
2022/10/18 02:48:08;;;;;;;15.68;3.85;;;;;;;13.29;100.00;99620.69;5067572;28;20031;-70
2022/10/18 02:50:33;;;;;;;8.88;3.95;;;;;;;13.34;100.00;99618.19;5060549;28;20024;-70
2022/10/18 02:52:59;;;;;;;9.00;4.00;;;;;;;13.45;100.00;99615.94;5055426;28;20065;-71
2022/10/18 02:55:24;;;;;;;9.68;3.28;;;;;;;13.59;100.00;99613.06;5065687;28;20051;-71
2022/10/18 02:57:49;;;;;;;10.98;3.80;;;;;;;13.70;100.00;99611.66;5066639;28;20028;-70
2022/10/18 03:00:15;;;;;;;11.93;3.80;;;;;;;13.78;100.00;99611.47;5061204;28;21653;-70
2022/10/18 03:02:40;;;;;;;15.45;3.90;;;;;;;13.70;100.00;99613.53;5067881;28;20146;-70
2022/10/18 03:05:05;;;;;;;14.90;3.92;;;;;;;13.61;100.00;99604.72;5071578;28;20044;-71
2022/10/18 03:07:31;;;;;;;13.98;4.72;;;;;;;13.61;100.00;99610.16;5061668;28;20383;-70
2022/10/18 03:09:56;;;;;;;8.65;3.88;;;;;;;13.58;100.00;99607.84;5062151;28;20032;-70
2022/10/18 03:12:21;;;;;;;11.95;3.72;;;;;;;13.58;100.00;99605.13;5067281;28;20537;-70
2022/10/18 03:14:47;;;;;;;8.57;4.07;;;;;;;13.62;100.00;99602.81;5061308;28;20538;-70
2022/10/18 03:17:12;;;;;;;11.32;4.13;;;;;;;13.56;100.00;99607.19;5061718;28;20111;-70
2022/10/18 03:19:37;;;;;;;15.63;4.20;;;;;;;13.69;100.00;99604.53;5067836;28;20032;-70
2022/10/18 03:22:04;;;;;;;8.70;3.83;;;;;;;13.67;100.00;99598.44;5067314;28;20105;-70
2022/10/18 03:24:29;;;;;;;10.50;4.95;;;;;;;13.64;100.00;99601.59;5065184;28;20482;-70
2022/10/18 03:26:54;;;;;;;9.27;4.13;;;;;;;13.64;100.00;99595.31;5067644;28;20029;-70
2022/10/18 03:29:20;;;;;;;11.35;4.10;;;;;;;13.65;100.00;99603.28;5066733;28;20086;-70
2022/10/18 03:31:45;;;;;;;7.22;3.92;;;;;;;13.67;100.00;99598.44;5069846;28;20067;-71
2022/10/18 03:34:10;;;;;;;6.13;3.90;;;;;;;13.66;100.00;99598.69;5063585;28;20120;-70
2022/10/18 03:36:37;;;;;;;8.02;3.53;;;;;;;13.74;100.00;99601.22;5059321;28;20040;-70
2022/10/18 03:39:02;;;;;;;11.18;4.65;;;;;;;13.76;100.00;99605.41;5068628;28;20020;-70
2022/10/18 03:41:28;;;;;;;8.60;3.75;;;;;;;13.64;100.00;99590.72;5053683;28;20031;-70
2022/10/18 03:43:53;;;;;;;9.50;3.72;;;;;;;13.74;100.00;99603.94;5068178;28;20055;-70
2022/10/18 03:46:18;;;;;;;7.03;3.72;;;;;;;13.74;100.00;99610.19;5068818;28;20033;-70
2022/10/18 03:48:43;;;;;;;9.25;3.67;;;;;;;13.69;100.00;99596.38;5062440;28;20036;-70
2022/10/18 03:51:09;;;;;;;6.60;3.08;;;;;;;13.79;100.00;99594.09;5069374;28;20035;-70
2022/10/18 03:53:34;;;;;;;9.10;3.33;;;;;;;13.88;100.00;99596.63;5070550;28;20024;-70
2022/10/18 03:55:59;;;;;;;4.45;3.55;;;;;;;13.93;100.00;99597.69;5068064;28;20421;-70
2022/10/18 03:58:25;;;;;;;6.65;3.47;;;;;;;14.00;100.00;99604.00;5056463;28;20024;-71
2022/10/18 04:00:51;;;;;;;6.70;3.70;;;;;;;13.93;100.00;99600.41;5061928;28;20020;-72
2022/10/18 04:03:17;;;;;;;6.50;3.15;;;;;;;13.85;100.00;99595.16;5056850;28;20029;-71
2022/10/18 04:05:44;;;;;;;6.82;3.50;;;;;;;13.77;100.00;99596.19;5069250;28;20087;-70
2022/10/18 04:08:09;;;;;;;10.75;3.47;;;;;;;13.64;100.00;99604.31;5069219;28;20421;-70
2022/10/18 04:10:37;;;;;;;9.50;3.10;;;;;;;13.59;100.00;99598.63;5064223;28;20041;-70
2022/10/18 04:13:02;;;;;;;9.55;3.83;;;;;;;13.52;100.00;99601.34;5071837;28;20017;-70
2022/10/18 04:15:28;;;;;;;15.70;3.78;;;;;;;13.54;100.00;99603.84;5059885;28;20086;-70
2022/10/18 04:17:53;;;;;;;5.47;3.38;;;;;;;13.73;100.00;99599.53;5075154;28;20025;-70
2022/10/18 04:20:18;;;;;;;12.65;3.00;;;;;;;13.81;100.00;99586.59;5072427;28;20486;-76
2022/10/18 04:22:44;;;;;;;12.27;3.20;;;;;;;13.90;100.00;99589.94;5056327;28;20207;-77
2022/10/18 04:25:09;;;;;;;10.13;2.90;;;;;;;13.92;100.00;99593.31;5059346;28;20040;-78
2022/10/18 04:27:35;;;;;;;7.35;3.08;;;;;;;13.86;100.00;99605.03;5064882;28;20032;-76
2022/10/18 04:30:00;;;;;;;11.38;3.75;;;;;;;13.83;100.00;99594.53;5062629;28;20032;-77
2022/10/18 04:32:27;;;;;;;9.20;3.17;;;;;;;13.82;100.00;99598.31;5065172;28;20020;-78
2022/10/18 04:34:53;;;;;;;9.05;3.30;;;;;;;13.77;100.00;99588.03;5056197;28;20119;-76
2022/10/18 04:37:18;;;;;;;4.88;2.90;;;;;;;14.04;100.00;99607.13;5062432;28;20056;-78
2022/10/18 04:39:47;;;;;;;6.70;2.88;;;;;;;14.09;100.00;99580.13;5063839;28;20561;-78
2022/10/18 04:42:13;;;;;;;5.82;3.28;;;;;;;14.29;100.00;99618.28;5067673;28;20516;-78
2022/10/18 04:44:39;;;;;;;5.22;2.97;;;;;;;14.28;100.00;99607.59;5066293;28;20059;-78
2022/10/18 04:47:04;;;;;;;13.10;2.78;;;;;;;14.18;100.00;99600.69;5072715;28;20478;-78
2022/10/18 04:49:30;;;;;;;11.80;3.42;;;;;;;14.33;100.00;99605.06;5056498;28;20021;-79
2022/10/18 04:51:55;;;;;;;8.05;3.00;;;;;;;14.34;100.00;99614.94;5061182;28;20031;-77
2022/10/18 04:54:20;;;;;;;6.97;2.60;;;;;;;14.43;100.00;99570.94;5063759;28;20032;-76
2022/10/18 04:56:46;;;;;;;4.88;2.60;;;;;;;14.74;100.00;99609.53;5062601;28;20477;-77
2022/10/18 04:59:11;;;;;;;10.25;3.22;;;;;;;14.75;100.00;99598.44;5061891;28;20032;-75
2022/10/18 05:01:36;;;;;;;10.48;2.85;;;;;;;14.81;100.00;99611.19;5077007;28;20116;-75
2022/10/18 05:04:01;;;;;;;5.53;3.08;;;;;;;14.78;100.00;99613.53;5074797;28;20025;-74
2022/10/18 05:06:27;;;;;;;9.15;3.10;;;;;;;14.78;100.00;99614.34;5071593;28;20033;-73
2022/10/18 05:08:52;;;;;;;10.80;3.25;;;;;;;14.64;100.00;99613.50;5066717;28;20028;-74
2022/10/18 05:11:17;;;;;;;7.43;3.00;;;;;;;14.76;100.00;99611.00;5072938;28;20032;-73
2022/10/18 05:13:43;;;;;;;8.73;3.15;;;;;;;14.68;100.00;99606.59;5069999;28;20047;-76
2022/10/18 05:16:08;;;;;;;8.88;3.33;;;;;;;14.72;100.00;99600.72;5074836;28;20124;-75
2022/10/18 05:18:33;;;;;;;7.60;2.92;;;;;;;14.65;100.00;99598.84;5074848;28;20020;-75
2022/10/18 05:20:59;;;;;;;12.90;3.20;;;;;;;14.77;100.00;99611.81;5069164;28;20032;-76
2022/10/18 05:23:24;;;;;;;9.10;3.20;;;;;;;14.69;100.00;99602.81;5057827;28;20016;-76
2022/10/18 05:25:50;;;;;;;4.93;2.83;;;;;;;14.74;100.00;99609.53;5061816;28;20470;-71
2022/10/18 05:28:16;;;;;;;3.92;2.75;;;;;;;14.65;100.00;99587.97;5069295;28;20035;-71
2022/10/18 05:30:41;;;;;;;5.22;2.85;;;;;;;14.71;100.00;99608.06;5064251;28;20439;-70
2022/10/18 05:33:07;;;;;;;5.40;2.65;;;;;;;14.62;100.00;99614.78;5056487;28;20078;-71
2022/10/18 05:35:33;;;;;;;9.38;2.63;;;;;;;14.55;100.00;99609.31;5064768;28;20025;-71
2022/10/18 05:38:01;;;;;;;5.60;3.03;;;;;;;14.48;100.00;99608.44;5067418;28;20506;-72
2022/10/18 05:40:27;;;;;;;7.13;3.35;;;;;;;14.49;100.00;99612.88;5066302;28;20100;-70
2022/10/18 05:42:52;;;;;;;5.63;2.55;;;;;;;14.43;100.00;99597.34;5069113;28;20518;-71
2022/10/18 05:45:18;;;;;;;4.28;2.70;;;;;;;14.55;100.00;99609.31;5067016;28;20032;-71
2022/10/18 05:47:44;;;;;;;6.93;2.92;;;;;;;14.50;100.00;99600.09;5064029;28;20051;-70
2022/10/18 05:50:09;;;;;;;8.18;3.10;;;;;;;14.58;100.00;99613.50;5059938;28;20040;-71
2022/10/18 05:52:35;;;;;;;10.05;3.22;;;;;;;14.55;100.00;99609.31;5063759;28;20025;-71
2022/10/18 05:55:00;;;;;;;6.38;2.90;;;;;;;14.67;100.00;99585.88;5062579;28;20104;-71
2022/10/18 05:57:25;;;;;;;4.78;2.70;;;;;;;14.94;100.00;99604.91;5054948;28;20029;-71
2022/10/18 05:59:51;;;;;;;4.18;2.67;;;;;;;14.87;100.00;99590.44;5062372;28;20025;-71
2022/10/18 06:02:17;;;;;;;11.43;3.50;;;;;;;14.90;100.00;99606.34;5061946;28;20382;-71
2022/10/18 06:04:42;;;;;;;10.05;3.28;;;;;;;14.82;100.00;99606.59;5069608;28;20103;-71
2022/10/18 06:07:11;;;;;;;8.85;3.30;;;;;;;14.74;100.00;99607.63;5062366;28;20074;-71
2022/10/18 06:09:37;;;;;;;8.20;3.95;;;;;;;14.68;100.00;99625.66;5073580;28;20387;-71
2022/10/18 06:12:03;;;;;;;6.47;2.88;;;;;;;14.65;100.00;99626.09;5058861;28;20172;-71
2022/10/18 06:14:29;;;;;;;5.22;2.80;;;;;;;14.62;100.00;99615.63;5061139;28;20048;-71
2022/10/18 06:16:55;;;;;;;7.22;3.15;;;;;;;14.71;100.00;99612.69;5068951;28;20029;-71
2022/10/18 06:19:21;;;;;;;5.70;2.80;;;;;;;14.92;100.00;99626.06;5065053;28;20024;-71
2022/10/18 06:21:46;;;;;;;10.45;3.10;;;;;;;15.25;100.00;99619.72;5068742;28;20104;-71
2022/10/18 06:24:12;;;;;;;10.98;2.83;;;;;;;15.42;100.00;99599.09;5064932;28;20442;-71
2022/10/18 06:26:37;;;;;;;7.60;3.40;;;;;;;15.68;100.00;99609.06;5057773;28;20051;-71
2022/10/18 06:29:02;;;;;;;8.07;3.03;;;;;;;15.64;100.00;99606.97;5055292;28;20031;-71
2022/10/18 06:31:28;;;;;;;4.70;2.50;;;;;;;15.68;100.00;99609.06;5061202;28;20098;-71
2022/10/18 06:33:56;;;;;;;9.48;2.90;;;;;;;15.76;100.00;99602.56;5064871;28;20021;-71
2022/10/18 06:36:21;;;;;;;10.23;2.63;;;;;;;15.94;100.00;99602.66;5064961;28;20042;-71
2022/10/18 06:38:47;;;;;;;5.50;2.70;;;;;;;16.00;100.00;99607.25;5056095;28;20032;-71
2022/10/18 06:41:12;;;;;;;9.77;2.60;;;;;;;16.17;100.00;99606.75;5057559;28;20028;-71
2022/10/18 06:43:38;;;;;;;25.95;4.53;;;;;;;16.30;100.00;99623.03;5062927;28;20059;-71
2022/10/18 06:46:06;;;;;;;12.40;3.28;;;;;;;16.41;100.00;99613.28;5061435;28;20558;-71
2022/10/18 06:48:33;;;;;;;7.30;3.30;;;;;;;16.62;100.00;99618.38;5057120;28;20035;-71
2022/10/18 06:51:01;;;;;;;5.38;2.83;;;;;;;16.66;100.00;99618.75;5069360;28;20054;-72
2022/10/18 06:53:30;;;;;;;7.50;3.25;;;;;;;16.67;100.00;99625.06;5052114;28;20052;-71
2022/10/18 06:56:04;;;;;;;5.82;2.80;;;;;;;16.65;100.00;99626.13;5053001;28;20024;-71
2022/10/18 06:58:30;;;;;;;6.65;2.63;;;;;;;16.74;100.00;99637.63;5059411;28;20056;-71
2022/10/18 07:00:55;;;;;;;7.55;2.58;;;;;;;16.72;100.00;99637.00;5065824;28;20063;-70
2022/10/18 07:03:21;;;;;;;12.25;3.45;;;;;;;16.75;100.00;99636.56;5056575;28;20032;-72
2022/10/18 07:05:47;;;;;;;8.93;3.13;;;;;;;16.67;100.00;99627.81;5061699;28;20459;-73
2022/10/18 07:08:13;;;;;;;10.63;3.47;;;;;;;16.50;100.00;99630.25;5049758;28;20394;-73
2022/10/18 07:10:38;;;;;;;5.45;2.88;;;;;;;16.69;100.00;99634.72;5059737;28;20028;-71
2022/10/18 07:13:04;;;;;;;5.68;2.83;;;;;;;16.51;100.00;99634.66;5052921;28;20540;-71
2022/10/18 07:15:29;;;;;;;6.00;2.65;;;;;;;16.58;100.00;99629.97;5061575;28;20028;-72
2022/10/18 07:17:54;;;;;;;6.15;2.47;;;;;;;16.66;100.00;99637.88;5064234;28;20360;-72
2022/10/18 07:20:20;;;;;;;5.20;2.70;;;;;;;16.61;100.00;99630.38;5058670;28;20501;-72
2022/10/18 07:22:45;;;;;;;8.50;2.72;;;;;;;16.76;100.00;99645.59;5064950;28;20033;-72
2022/10/18 07:25:10;;;;;;;11.80;3.10;;;;;;;16.72;100.00;99636.19;5061248;28;20024;-71
2022/10/18 07:27:41;;;;;;;10.52;3.08;;;;;;;16.78;100.00;99646.22;5062651;28;20393;-71
2022/10/18 07:30:08;;;;;;;9.70;3.90;;;;;;;16.78;100.00;99660.72;5061760;28;20065;-72
2022/10/18 07:32:33;;;;;;;11.38;2.65;;;;;;;16.82;100.00;99656.50;5068517;28;20017;-72
2022/10/18 07:34:59;;;;;;;9.82;2.90;;;;;;;16.85;100.00;99657.97;5069543;28;20119;-72
2022/10/18 07:37:24;;;;;;;8.73;3.00;;;;;;;16.98;100.00;99662.47;5056052;28;20078;-72
2022/10/18 07:39:50;;;;;;;13.00;2.92;;;;;;;17.01;100.00;99657.38;5064151;28;20024;-72
2022/10/18 07:42:15;;;;;;;7.88;3.53;;;;;;;17.01;100.00;99667.50;5058565;28;20475;-72
2022/10/18 07:44:40;;;;;;;8.25;3.20;;;;;;;17.04;100.00;99664.31;5065163;28;20029;-72
2022/10/18 07:47:06;;;;;;;13.60;2.95;;;;;;;16.90;100.00;99658.13;5064605;28;20375;-72
2022/10/18 07:49:31;;;;;;;8.77;2.95;;;;;;;17.00;100.00;99658.47;5065425;28;20111;-72
2022/10/18 07:51:56;;;;;;;8.82;3.00;;;;;;;17.19;100.00;99658.50;5058685;28;20024;-72
2022/10/18 07:54:21;;;;;;;4.88;2.22;;;;;;;17.47;100.00;99649.75;5058487;28;20507;-72
2022/10/18 07:56:47;;;;;;;3.35;2.42;;;;;;;17.80;100.00;99656.78;5063617;28;20024;-72
2022/10/18 07:59:12;;;;;;;5.40;2.25;;;;;;;18.35;100.00;99660.22;5072756;28;20108;-72
2022/10/18 08:01:38;;;;;;;7.28;3.42;;;;;;;18.80;100.00;99645.22;5072040;28;20429;-72
2022/10/18 08:04:03;;;;;;;6.60;2.92;;;;;;;19.41;100.00;99662.28;5072480;28;20024;-71
2022/10/18 08:06:29;;;;;;;14.93;3.00;;;;;;;19.58;100.00;99676.13;5068204;28;20512;-71
2022/10/18 08:08:54;;;;;;;10.23;2.53;;;;;;;19.57;100.00;99655.22;5064049;28;20036;-72
2022/10/18 08:11:23;;;;;;;14.55;3.33;;;;;;;19.57;100.00;99668.94;5090130;22;20082;-70
2022/10/18 08:13:49;;;;;;;6.07;2.72;;;;;;;19.46;100.00;99660.50;5052937;28;20033;-75
2022/10/18 08:16:17;;;;;;;7.90;2.80;;;;;;;19.27;100.00;99675.44;5047185;28;20456;-74
2022/10/18 08:18:43;;;;;;;5.78;2.35;;;;;;;19.14;100.00;99661.94;5047709;28;20508;-74
2022/10/18 08:21:10;;;;;;;8.25;2.38;;;;;;;19.14;100.00;99679.25;5052214;28;20121;-74
2022/10/18 08:23:37;;;;;;;9.27;2.70;;;;;;;19.18;100.00;99672.22;5046563;28;20021;-74
2022/10/18 08:26:08;;;;;;;5.03;2.70;;;;;;;19.22;100.00;99662.41;5045781;28;20048;-72
2022/10/18 08:28:36;;;;;;;32.83;3.83;;;;;;;19.19;100.00;99690.34;5051412;28;20406;-75
2022/10/18 08:31:07;;;;;;;6.22;2.70;;;;;;;18.92;100.00;99679.00;5045177;28;20025;-72
2022/10/18 08:33:34;;;;;;;10.88;2.80;;;;;;;18.71;100.00;99677.63;5042660;28;20390;-72
2022/10/18 08:36:04;;;;;;;6.20;2.45;;;;;;;18.68;100.00;99691.81;5049126;28;20028;-73
2022/10/18 08:38:30;;;;;;;3.08;2.08;;;;;;;18.64;100.00;99693.31;5044066;28;20031;-73
2022/10/18 08:40:59;;;;;;;7.15;2.53;;;;;;;18.63;100.00;99677.97;5046731;28;20040;-72
2022/10/18 08:43:24;;;;;;;5.07;2.22;;;;;;;18.89;100.00;99690.44;5046712;28;20020;-73
2022/10/18 08:45:52;;;;;;;10.10;2.92;;;;;;;19.13;100.00;99696.78;5051797;28;20462;-72
2022/10/18 08:48:36;;;;;;;5.95;2.63;;;;;;;18.73;100.00;99696.56;5051717;28;20032;-73
2022/10/18 08:51:05;;;;;;;11.45;2.85;;;;;;;18.80;100.00;99703.63;5042603;28;20036;-73
2022/10/18 08:53:39;;;;;;;6.03;3.08;;;;;;;18.62;100.00;99684.50;5044041;28;20029;-73
2022/10/18 08:56:14;;;;;;;9.95;2.65;;;;;;;18.78;100.00;99696.72;5051055;28;20036;-72
2022/10/18 08:58:43;;;;;;;6.45;2.65;;;;;;;18.71;100.00;99674.88;5042323;28;20082;-73
2022/10/18 09:01:22;;;;;;;6.23;2.50;;;;;;;18.85;100.00;99682.91;5048502;28;20494;-73
2022/10/18 09:04:06;;;;;;;4.72;2.10;;;;;;;19.17;100.00;99703.44;5047119;28;20029;-72
2022/10/18 09:06:42;;;;;;;16.02;2.67;;;;;;;19.39;100.00;99711.13;5052544;28;20032;-72
2022/10/18 09:09:35;;;;;;;10.52;3.42;;;;;;;19.31;100.00;99714.19;5050217;28;20099;-73
2022/10/18 09:12:16;;;;;;;5.78;2.50;;;;;;;19.23;100.00;99727.22;5044022;28;20029;-72
2022/10/18 09:15:09;;;;;;;9.20;2.28;;;;;;;19.21;100.00;99725.78;5050623;28;20100;-72
2022/10/18 09:17:40;;;;;;;10.90;2.95;;;;;;;19.43;100.00;99729.59;5048827;28;20021;-72
2022/10/18 09:20:23;;;;;;;4.90;2.30;;;;;;;19.53;100.00;99728.16;5047683;28;20041;-72
2022/10/18 09:22:57;;;;;;;8.75;2.83;;;;;;;19.54;100.00;99740.81;5041568;28;20506;-72
2022/10/18 09:25:35;;;;;;;12.98;2.97;;;;;;;20.09;100.00;99730.25;5049147;28;20108;-73
2022/10/18 09:28:29;;;;;;;6.10;2.53;;;;;;;20.72;100.00;99724.88;5050472;28;20021;-72
2022/10/18 09:31:18;;;;;;;3.92;2.30;;;;;;;21.07;100.00;99719.19;5065530;28;20025;-72
2022/10/18 09:33:57;;;;;;;3.58;2.20;;;;;;;21.33;100.00;99720.44;5050849;28;20060;-72
2022/10/18 09:36:34;;;;;;;10.27;2.17;;;;;;;21.67;100.00;99715.72;5050482;28;20039;-72
2022/10/18 09:39:03;;;;;;;5.65;2.38;;;;;;;21.84;100.00;99692.81;5047130;28;20024;-73
2022/10/18 09:41:38;;;;;;;6.43;2.53;;;;;;;21.99;100.00;99709.53;5050578;28;20025;-75
2022/10/18 09:44:26;;;;;;;4.90;1.98;;;;;;;24.10;100.00;99718.56;5042818;28;20140;-75
2022/10/18 09:46:58;;;;;;;6.78;2.03;;;;;;;27.44;78.45;99711.13;5047076;28;20051;-76
2022/10/18 09:49:29;;;;;;;4.90;1.88;;;;;;;29.00;65.40;99708.63;5046242;28;20116;-76
2022/10/18 09:51:58;;;;;;;5.45;2.25;;;;;;;29.65;58.54;99695.81;5050213;28;20079;-75
2022/10/18 09:54:31;;;;;;;;;;;;;;;28.30;60.25;99712.13;5051846;28;20031;-76
2022/10/18 09:57:16;;;;;;;3.60;2.00;;;;;;;27.03;63.25;99703.97;5050126;28;20015;-76
2022/10/18 09:59:46;;;;;;;6.63;2.47;;;;;;;26.30;69.93;99714.97;5040370;28;20041;-76
2022/10/18 10:02:17;;;;;;;6.30;2.33;;;;;;;27.60;66.05;99714.59;5037023;28;20404;-75
2022/10/18 10:04:42;;;;;;;5.07;1.73;;;;;;;29.58;57.38;99703.72;5047218;28;20108;-76
2022/10/18 10:07:15;;;;;;;6.38;1.85;;;;;;;29.10;57.72;99702.06;5048509;28;20477;-75
2022/10/18 10:09:47;;;;;;;10.73;2.00;;;;;;;27.10;64.24;99698.09;5048653;28;20106;-74
2022/10/18 10:12:27;;;;;;;2.78;1.80;;;;;;;27.32;64.50;99704.00;5044110;28;20096;-76
2022/10/18 10:14:52;;;;;;;5.75;1.77;;;;;;;25.02;72.83;99702.22;5046633;28;20506;-75
2022/10/18 10:17:25;;;;;;;4.93;2.15;;;;;;;25.66;74.16;99705.47;5038421;28;20026;-75
2022/10/18 10:20:16;;;;;;;5.20;2.00;;;;;;;24.49;81.00;99707.09;5047738;28;20028;-76
2022/10/18 10:22:45;;;;;;;6.88;2.03;;;;;;;24.70;84.31;99703.25;5052344;28;20382;-75
2022/10/18 10:25:31;;;;;;;4.20;1.73;;;;;;;24.64;86.64;99698.84;5046586;28;20593;-75
2022/10/18 10:28:03;;;;;;;3.90;1.98;;;;;;;25.44;79.68;99691.94;5043204;28;20048;-75
2022/10/18 10:30:34;;;;;;;8.50;1.90;;;;;;;26.04;74.16;99697.59;5041714;28;20039;-75
2022/10/18 10:33:00;;;;;;;6.70;1.67;;;;;;;27.80;67.06;99697.69;5046432;28;20032;-75
2022/10/18 10:35:34;;;;;;;7.55;2.03;;;;;;;29.14;61.95;99700.31;5049400;28;20033;-76
2022/10/18 10:38:00;;;;;;;2.42;1.65;;;;;;;29.66;58.91;99691.91;5044950;28;20059;-76
2022/10/18 10:40:29;;;;;;;4.70;1.70;;;;;;;29.84;56.90;99692.91;5039108;28;20021;-76
2022/10/18 10:43:15;;;;;;;9.35;1.77;;;;;;;29.99;53.61;99705.72;5041303;28;20017;-76
2022/10/18 10:45:56;;;;;;;8.65;1.83;;;;;;;30.48;53.69;99702.19;5042680;28;20031;-76
2022/10/18 10:48:22;;;;;;;6.53;1.77;;;;;;;31.88;51.52;99693.59;5047216;28;20558;-76
2022/10/18 10:51:02;;;;;;;4.22;1.75;;;;;;;31.80;48.28;99696.38;5042128;28;20059;-77
2022/10/18 10:53:51;;;;;;;10.07;1.40;;;;;;;32.13;48.01;99698.84;5045954;28;20060;-76
2022/10/18 10:56:25;;;;;;;3.97;1.55;;;;;;;30.81;49.98;99693.63;5049233;28;20119;-76
2022/10/18 10:58:52;;;;;;;8.07;2.38;;;;;;;32.72;45.63;99682.44;5044318;28;20040;-75
2022/10/18 11:01:29;;;;;;;3.58;1.48;;;;;;;33.47;45.21;99697.06;5042697;28;20039;-77
2022/10/18 11:04:18;;;;;;;4.55;1.58;;;;;;;32.47;46.89;99704.53;5046332;28;20035;-74
2022/10/18 11:06:50;;;;;;;5.07;1.70;;;;;;;32.55;47.90;99699.28;5041535;28;20029;-73
2022/10/18 11:09:45;;;;;;;5.68;1.58;;;;;;;33.70;43.73;99691.25;5040802;28;20021;-75
2022/10/18 11:12:17;;;;;;;4.50;1.40;;;;;;;34.64;43.07;99685.44;5024533;28;20045;-75
2022/10/18 11:14:48;;;;;;;4.30;1.40;;;;;;;33.68;43.19;99679.53;5038090;28;20036;-75
2022/10/18 11:17:24;;;;;;;4.68;1.63;;;;;;;31.89;46.85;99691.66;5044844;28;20138;-73
2022/10/18 11:19:55;;;;;;;7.30;1.67;;;;;;;29.59;50.62;99681.09;5046663;28;20036;-80
2022/10/18 11:22:24;;;;;;;3.92;1.48;;;;;;;28.27;55.53;99684.91;5044475;28;20486;-75
2022/10/18 11:24:50;;;;;;;5.57;1.60;;;;;;;26.82;61.53;99688.59;5048660;28;20032;-75
2022/10/18 11:27:38;;;;;;;4.32;1.52;;;;;;;26.70;63.97;99686.19;5037161;28;20410;-75
2022/10/18 11:30:25;;;;;;;4.38;1.88;;;;;;;28.12;60.07;99685.91;5042932;28;20082;-75
2022/10/18 11:32:56;;;;;;;4.88;1.70;;;;;;;27.88;60.65;99683.16;5045282;28;20021;-75
2022/10/18 11:36:04;;;;;;;7.60;1.70;;;;;;;27.85;61.84;99674.56;5047655;28;20087;-74